Time;durP1;ratioP1;P1;durP2;ratioP2;P2;SDS_P1;SDS_P2;PMS_P1;PMS_P2;Temp;Humidity;BMP_temperature;BMP_pressure;BME280_temperature;BME280_humidity;BME280_pressure;Samples;Min_cycle;Max_cycle;Signal;HPM_P1;HPM_P2
2020/02/27 00:00:28;;;;;;;2.4;1.5;;;;;;;1.04;84.4668;930.4119;;;;
2020/02/27 00:02:53;;;;;;;3.1;1.6;;;;;;;1.27;84.09863;930.4052;;;;
2020/02/27 00:05:18;;;;;;;2.5;1.4;;;;;;;1.56;83.22852;930.4283;;;;
2020/02/27 00:07:43;;;;;;;3.2;1.7;;;;;;;1.62;82.49121;930.4604;;;;
2020/02/27 00:10:08;;;;;;;2.9;1.7;;;;;;;1.64;82.22656;930.4662;;;;
2020/02/27 00:12:33;;;;;;;2.1;1.7;;;;;;;1.63;82.24707;930.4378;;;;
2020/02/27 00:14:59;;;;;;;2.8;1.9;;;;;;;1.58;82.42676;930.454;;;;
2020/02/27 00:17:24;;;;;;;2;1.7;;;;;;;1.74;81.87891;930.4615;;;;
2020/02/27 00:19:49;;;;;;;2.2;1.7;;;;;;;1.81;81.64453;930.445;;;;
2020/02/27 00:22:14;;;;;;;2.4;1.7;;;;;;;1.57;81.63086;930.4144;;;;
2020/02/27 00:24:39;;;;;;;2.7;1.6;;;;;;;1.36;81.9707;930.4927;;;;
2020/02/27 00:27:04;;;;;;;2.6;1.8;;;;;;;1.51;81.73242;930.5115;;;;
2020/02/27 00:29:29;;;;;;;3.1;2;;;;;;;1.5;82.13184;930.4101;;;;
2020/02/27 00:31:55;;;;;;;3.4;1.7;;;;;;;1.64;81.94727;930.3738;;;;
2020/02/27 00:34:20;;;;;;;2;1.7;;;;;;;1.72;80.92285;930.5698;;;;
2020/02/27 00:36:45;;;;;;;2.4;1.9;;;;;;;1.52;80.97266;930.6263;;;;
2020/02/27 00:39:10;;;;;;;2.4;1.7;;;;;;;1.7;80.71777;930.6094;;;;
2020/02/27 00:41:35;;;;;;;3.1;1.8;;;;;;;1.72;80.09473;930.573;;;;
2020/02/27 00:44:00;;;;;;;3.5;1.9;;;;;;;1.62;80.5791;930.6753;;;;
2020/02/27 00:46:25;;;;;;;2.8;2;;;;;;;1.51;80.92773;930.7885;;;;
2020/02/27 00:48:50;;;;;;;3.2;2.3;;;;;;;1.76;80.90918;930.8192;;;;
2020/02/27 00:51:15;;;;;;;2.2;1.9;;;;;;;1.75;80.23438;930.8635;;;;
2020/02/27 00:53:41;;;;;;;2.4;1.9;;;;;;;1.83;79.67871;930.9628;;;;
2020/02/27 00:56:06;;;;;;;2.8;1.9;;;;;;;1.81;79.50781;930.9739;;;;
2020/02/27 00:58:31;;;;;;;2.3;1.6;;;;;;;1.45;80.87109;930.9992;;;;
2020/02/27 01:00:58;;;;;;;2.9;1.6;;;;;;;1.35;81.62305;931.0655;;;;
2020/02/27 01:03:21;;;;;;;2.2;1.6;;;;;;;1.48;81.35645;931.1139;;;;
2020/02/27 01:05:47;;;;;;;2.7;1.7;;;;;;;1.39;82.03223;931.1531;;;;
2020/02/27 01:08:12;;;;;;;6.5;1.8;;;;;;;1.26;82.54395;931.1702;;;;
2020/02/27 01:10:37;;;;;;;2.2;1.8;;;;;;;1.41;82.04883;931.0786;;;;
2020/02/27 01:13:03;;;;;;;2.8;2.2;;;;;;;1.51;81.59863;931.158;;;;
2020/02/27 01:15:28;;;;;;;9.3;5;;;;;;;1.31;81.73926;931.1544;;;;
2020/02/27 01:17:53;;;;;;;5.5;3.1;;;;;;;1.29;82.00195;931.2456;;;;
2020/02/27 01:20:19;;;;;;;4.1;2.5;;;;;;;1.46;81.62109;931.2253;;;;
2020/02/27 01:22:44;;;;;;;7.8;4.6;;;;;;;1.46;81.54492;931.2169;;;;
2020/02/27 01:25:09;;;;;;;4.4;3;;;;;;;1.44;82.35547;931.1755;;;;
2020/02/27 01:27:36;;;;;;;3.6;1.9;;;;;;;1.19;83.36719;931.0955;;;;
2020/02/27 01:30:01;;;;;;;3.3;1.8;;;;;;;1.16;83.61914;931.132;;;;
2020/02/27 01:32:26;;;;;;;3.9;2;;;;;;;1.31;83.10254;931.1688;;;;
2020/02/27 01:34:51;;;;;;;3.7;1.8;;;;;;;1.45;82.16699;931.1584;;;;
2020/02/27 01:37:16;;;;;;;3.8;1.7;;;;;;;1.58;81.58789;931.1789;;;;
2020/02/27 01:39:41;;;;;;;3.1;1.7;;;;;;;1.65;81.07617;931.1855;;;;
2020/02/27 01:42:07;;;;;;;3.1;2.1;;;;;;;1.5;81.7627;931.1584;;;;
2020/02/27 01:44:32;;;;;;;4.2;3.2;;;;;;;1.39;82.72461;931.114;;;;
2020/02/27 01:46:57;;;;;;;4.1;2.5;;;;;;;1.46;82.54883;931.1697;;;;
2020/02/27 01:49:23;;;;;;;4;2.7;;;;;;;1.53;82.02832;931.1689;;;;
2020/02/27 01:51:49;;;;;;;1.7;1.4;;;;;;;1.38;79.36133;931.236;;;;
2020/02/27 01:54:15;;;;;;;2.3;1.5;;;;;;;1.56;78.78027;931.2365;;;;
2020/02/27 01:56:40;;;;;;;3.3;1.6;;;;;;;1.65;78.52832;931.1643;;;;
2020/02/27 01:59:05;;;;;;;4.2;3.7;;;;;;;1.76;78.96191;931.1345;;;;
2020/02/27 02:01:31;;;;;;;3.7;2.4;;;;;;;1.71;79.28809;931.0396;;;;
2020/02/27 02:03:56;;;;;;;4.3;3;;;;;;;1.73;79.81543;931.1586;;;;
2020/02/27 02:06:21;;;;;;;4;2.4;;;;;;;1.81;79.85449;931.1521;;;;
2020/02/27 02:08:48;;;;;;;2.4;1.7;;;;;;;1.61;79.78223;931.2145;;;;
2020/02/27 02:11:14;;;;;;;3;1.9;;;;;;;1.63;79.4834;931.1705;;;;
2020/02/27 02:13:38;;;;;;;3.6;1.9;;;;;;;1.7;79.95508;931.0385;;;;
2020/02/27 02:16:03;;;;;;;2.7;1.9;;;;;;;1.75;79.15039;931.0159;;;;
2020/02/27 02:18:28;;;;;;;2.6;2.1;;;;;;;1.71;79.04199;931.0067;;;;
2020/02/27 02:20:53;;;;;;;2.8;1.9;;;;;;;1.78;78.94141;930.9467;;;;
2020/02/27 02:23:18;;;;;;;3.9;2.2;;;;;;;1.89;79.08496;930.9039;;;;
2020/02/27 02:25:44;;;;;;;3.7;2.2;;;;;;;1.64;80.0791;930.8641;;;;
2020/02/27 02:28:09;;;;;;;4.7;2.3;;;;;;;1.57;79.85352;930.8697;;;;
2020/02/27 02:33:21;;;;;;;3.9;2.3;;;;;;;1.64;80.13574;930.8125;;;;
2020/02/27 02:37:50;;;;;;;3;1.9;;;;;;;1.38;80.29785;930.6916;;;;
2020/02/27 02:40:14;;;;;;;4;2.4;;;;;;;1.32;80.86719;930.7289;;;;
2020/02/27 02:42:40;;;;;;;3;1.7;;;;;;;1.41;80.50586;930.7344;;;;
2020/02/27 02:45:05;;;;;;;2.5;1.8;;;;;;;1.38;80.14355;930.7513;;;;
2020/02/27 02:47:32;;;;;;;3.4;1.9;;;;;;;1.27;80.78027;930.606;;;;
2020/02/27 02:49:57;;;;;;;2.6;1.9;;;;;;;1.5;80.48828;930.4939;;;;
2020/02/27 02:52:22;;;;;;;3.5;1.6;;;;;;;1.47;80.03613;930.4398;;;;
2020/02/27 02:54:47;;;;;;;2.9;1.6;;;;;;;1.12;79.95801;930.527;;;;
2020/02/27 02:57:12;;;;;;;2;1.6;;;;;;;1.13;80.21875;930.4906;;;;
2020/02/27 02:59:37;;;;;;;2.7;1.8;;;;;;;1.22;80.25586;930.5345;;;;
2020/02/27 03:02:02;;;;;;;2.3;1.3;;;;;;;1.1;79.02734;930.5499;;;;
2020/02/27 03:04:27;;;;;;;4.4;1.8;;;;;;;1.1;80.13477;930.5705;;;;
2020/02/27 03:06:52;;;;;;;2.4;1.5;;;;;;;1.09;79.45996;930.5778;;;;
2020/02/27 03:09:20;;;;;;;3.2;1.7;;;;;;;1.09;79.88574;930.6822;;;;
2020/02/27 03:11:45;;;;;;;1.8;1.4;;;;;;;1.12;79.96973;930.7271;;;;
2020/02/27 03:14:10;;;;;;;2;1.5;;;;;;;1.2;79.0459;930.7146;;;;
2020/02/27 03:16:36;;;;;;;3.7;1.4;;;;;;;0.95;80.15039;930.7095;;;;
2020/02/27 03:19:01;;;;;;;2.4;1.3;;;;;;;0.82;81.15137;930.8408;;;;
2020/02/27 03:21:26;;;;;;;2.3;0.9;;;;;;;0.57;80.12305;930.889;;;;
2020/02/27 03:23:52;;;;;;;2.4;1.1;;;;;;;0.67;79.26074;930.9969;;;;
2020/02/27 03:26:17;;;;;;;2.4;1.3;;;;;;;0.62;79.50684;931.024;;;;
2020/02/27 03:28:42;;;;;;;2.7;1.4;;;;;;;0.63;80.61328;930.964;;;;
2020/02/27 03:31:08;;;;;;;2.2;1.2;;;;;;;0.88;80.28223;931.03;;;;
2020/02/27 03:33:34;;;;;;;3.4;1.5;;;;;;;0.93;79.64355;930.9768;;;;
2020/02/27 03:35:59;;;;;;;3;1.6;;;;;;;0.78;80.21875;930.8783;;;;
2020/02/27 03:38:24;;;;;;;2.9;1.6;;;;;;;0.61;81.12305;930.8209;;;;
2020/02/27 03:40:49;;;;;;;3;1.3;;;;;;;0.58;81.39453;930.7459;;;;
2020/02/27 03:43:14;;;;;;;2.3;1.2;;;;;;;0.67;80.87891;930.765;;;;
2020/02/27 03:45:39;;;;;;;1.5;1;;;;;;;0.71;80.60645;930.6496;;;;
2020/02/27 03:48:04;;;;;;;2.5;1;;;;;;;0.69;79.87793;930.7344;;;;
2020/02/27 03:50:31;;;;;;;2.3;1.1;;;;;;;0.62;79.76367;930.7491;;;;
2020/02/27 03:52:55;;;;;;;4;1.2;;;;;;;0.64;79.5332;930.644;;;;
2020/02/27 03:55:20;;;;;;;3.3;1.4;;;;;;;1.03;79.07129;930.8989;;;;
2020/02/27 03:57:45;;;;;;;4.6;3.6;;;;;;;1.13;78.99023;930.9439;;;;
2020/02/27 04:02:30;;;;;;;3.5;2.3;;;;;;;1.2;79.09082;931.0447;;;;
2020/02/27 04:04:55;;;;;;;3.1;1.6;;;;;;;1.23;79.19629;931.0114;;;;
2020/02/27 04:07:20;;;;;;;3.8;2.1;;;;;;;1.15;79.41797;930.8706;;;;
2020/02/27 04:09:45;;;;;;;4.7;1.6;;;;;;;1.09;79.99805;930.8695;;;;
2020/02/27 04:12:13;;;;;;;2.2;1.3;;;;;;;1.15;80.03223;930.9052;;;;
2020/02/27 04:14:35;;;;;;;3.1;1.2;;;;;;;1.11;80.50391;930.9595;;;;
2020/02/27 04:17:00;;;;;;;2.4;1.2;;;;;;;1.21;79.93066;931.0808;;;;
2020/02/27 04:19:25;;;;;;;3.4;1.2;;;;;;;1.24;79.48828;931.0447;;;;
2020/02/27 04:21:50;;;;;;;2.7;1.3;;;;;;;1.25;79.14551;931.0122;;;;
2020/02/27 04:24:15;;;;;;;2.7;1.3;;;;;;;1.35;79.43262;930.937;;;;
2020/02/27 04:26:41;;;;;;;2.8;1.3;;;;;;;1.37;78.74316;931.0128;;;;
2020/02/27 04:29:06;;;;;;;3.7;1.2;;;;;;;1.3;79.11133;931.0625;;;;
2020/02/27 04:31:31;;;;;;;3.1;1.2;;;;;;;1.23;78.64941;931.0036;;;;
2020/02/27 04:33:57;;;;;;;2;1.2;;;;;;;1.14;78.52051;930.9714;;;;
2020/02/27 04:36:23;;;;;;;2.2;1.2;;;;;;;1.02;78.63281;931.0686;;;;
2020/02/27 04:38:48;;;;;;;3;1.1;;;;;;;0.89;79.5918;931.0334;;;;
2020/02/27 04:41:13;;;;;;;2.6;1.1;;;;;;;1.13;79.24707;930.9289;;;;
2020/02/27 04:43:38;;;;;;;3.4;1.3;;;;;;;1.1;79.99902;931.0594;;;;
2020/02/27 04:46:03;;;;;;;4;1.2;;;;;;;1.1;79.95508;931.0556;;;;
2020/02/27 04:48:28;;;;;;;2.8;1.2;;;;;;;1.12;79.23242;931.1589;;;;
2020/02/27 04:50:54;;;;;;;5.4;1.6;;;;;;;1.21;79.42773;931.1786;;;;
2020/02/27 04:53:19;;;;;;;2.2;1;;;;;;;1.16;79.38574;931.1649;;;;
2020/02/27 04:55:44;;;;;;;4.7;1.5;;;;;;;1.05;78.56152;931.1591;;;;
2020/02/27 04:58:09;;;;;;;5;1.4;;;;;;;1;78.30566;931.2009;;;;
2020/02/27 05:00:35;;;;;;;3;1.3;;;;;;;1.01;79.40137;931.2463;;;;
2020/02/27 05:03:00;;;;;;;6.1;1.4;;;;;;;1.11;79.72168;931.2208;;;;
2020/02/27 05:05:25;;;;;;;4.8;1.7;;;;;;;1.21;78.69043;931.1622;;;;
2020/02/27 05:07:50;;;;;;;4.3;2.6;;;;;;;1.28;78.56934;931.1833;;;;
2020/02/27 05:10:15;;;;;;;5.4;2.8;;;;;;;1.37;78.2627;931.2057;;;;
2020/02/27 05:12:40;;;;;;;20.6;17.2;;;;;;;1.48;77.95996;931.0842;;;;
2020/02/27 05:15:05;;;;;;;4.4;2.2;;;;;;;1.51;77.86426;931.2232;;;;
2020/02/27 05:17:31;;;;;;;5.9;1.8;;;;;;;1.51;77.9873;931.1063;;;;
2020/02/27 05:19:55;;;;;;;4;1.6;;;;;;;1.5;77.77344;931.0667;;;;
2020/02/27 05:22:21;;;;;;;5.1;1.5;;;;;;;1.5;78.32129;931.1555;;;;
2020/02/27 05:24:46;;;;;;;3.1;1.4;;;;;;;1.47;78.05762;931.1268;;;;
2020/02/27 05:27:11;;;;;;;5.9;1.8;;;;;;;1.53;77.88965;931.0675;;;;
2020/02/27 05:29:51;;;;;;;5.6;2.2;;;;;;;1.48;78.38281;930.9906;;;;
2020/02/27 05:32:25;;;;;;;4.9;1.7;;;;;;;1.56;77.64941;931.1194;;;;
2020/02/27 05:34:27;;;;;;;4.1;1.5;;;;;;;1.43;78.11621;931.1396;;;;
2020/02/27 05:36:51;;;;;;;4.7;1.7;;;;;;;1.37;78.56445;931.0896;;;;
2020/02/27 05:39:16;;;;;;;7.1;2.1;;;;;;;1.41;77.75684;931.1038;;;;
2020/02/27 05:41:41;;;;;;;2.9;1.7;;;;;;;1.41;77.67676;931.1688;;;;
2020/02/27 05:44:06;;;;;;;3.5;1.6;;;;;;;1.38;77.4707;931.1692;;;;
2020/02/27 05:46:31;;;;;;;4.4;2;;;;;;;1.35;77.56641;931.2176;;;;
2020/02/27 05:48:57;;;;;;;3.8;1.5;;;;;;;1.22;77.96582;931.1672;;;;
2020/02/27 05:51:22;;;;;;;4.3;1.3;;;;;;;1.26;77.98535;931.1245;;;;
2020/02/27 05:53:47;;;;;;;4.5;1.7;;;;;;;1.32;78.31934;931.1453;;;;
2020/02/27 05:56:12;;;;;;;4.7;1.3;;;;;;;1.3;78.6416;931.0695;;;;
2020/02/27 05:58:37;;;;;;;6.2;1.9;;;;;;;1.37;78.95508;931.0576;;;;
2020/02/27 06:01:02;;;;;;;7.9;1.7;;;;;;;1.42;79.0752;931.0641;;;;
2020/02/27 06:03:27;;;;;;;4.8;1.3;;;;;;;1.46;79.29785;931.1016;;;;
2020/02/27 06:05:52;;;;;;;4;1.3;;;;;;;1.54;79.02051;931.0711;;;;
2020/02/27 06:08:17;;;;;;;4.6;1.5;;;;;;;1.48;78.89941;931.0403;;;;
2020/02/27 06:10:43;;;;;;;6.3;2.1;;;;;;;1.42;79.31055;931.1166;;;;
2020/02/27 06:13:08;;;;;;;5.3;1.5;;;;;;;1.23;80.18164;931.1715;;;;
2020/02/27 06:15:33;;;;;;;4.8;1.5;;;;;;;1.12;80.65039;931.1802;;;;
2020/02/27 06:17:58;;;;;;;4.5;1.6;;;;;;;1.1;80.64844;931.1796;;;;
2020/02/27 06:20:23;;;;;;;4.2;1.4;;;;;;;1.09;80.64551;931.1605;;;;
2020/02/27 06:22:48;;;;;;;5;1.5;;;;;;;1.15;80.35547;931.1624;;;;
2020/02/27 06:25:13;;;;;;;5.2;1.5;;;;;;;1.18;79.51367;931.23;;;;
2020/02/27 06:27:38;;;;;;;4.5;1.5;;;;;;;1.12;79.70117;931.1997;;;;
2020/02/27 06:30:04;;;;;;;5.5;1.5;;;;;;;1.18;79.22363;931.2253;;;;
2020/02/27 06:32:29;;;;;;;5.9;1.5;;;;;;;1.3;78.70703;931.2325;;;;
2020/02/27 06:34:54;;;;;;;2.2;1.1;;;;;;;1.25;77.625;931.1092;;;;
2020/02/27 06:37:19;;;;;;;3.6;1.2;;;;;;;1.4;77.28516;931.1727;;;;
2020/02/27 06:39:44;;;;;;;4.5;2.9;;;;;;;1.49;77.64844;931.177;;;;
2020/02/27 06:42:11;;;;;;;5.5;1.5;;;;;;;1.33;77.28223;931.1824;;;;
2020/02/27 06:44:36;;;;;;;4.1;1.7;;;;;;;1.26;77.87402;931.145;;;;
2020/02/27 06:47:01;;;;;;;5.3;3;;;;;;;1.46;77.93457;931.1008;;;;
2020/02/27 06:49:26;;;;;;;6;3.3;;;;;;;1.64;77.12695;931.0861;;;;
2020/02/27 06:51:55;;;;;;;3.8;1.8;;;;;;;1.5;76.7002;931.0378;;;;
2020/02/27 06:54:18;;;;;;;3.3;1.7;;;;;;;1.57;77.02441;930.9417;;;;
2020/02/27 06:56:43;;;;;;;6.9;1.7;;;;;;;1.68;77.43555;931.0442;;;;
2020/02/27 06:59:08;;;;;;;8.2;1.7;;;;;;;1.76;77.26074;930.9533;;;;
2020/02/27 07:04:00;;;;;;;2.3;1.1;;;;;;;1.82;76.1084;930.9508;;;;
2020/02/27 07:06:25;;;;;;;3.9;1.2;;;;;;;1.86;76.38477;930.9612;;;;
2020/02/27 07:08:50;;;;;;;5.5;1.2;;;;;;;1.93;76.17285;930.9688;;;;
2020/02/27 07:11:15;;;;;;;4.6;1.6;;;;;;;1.67;76.18164;930.916;;;;
2020/02/27 07:13:40;;;;;;;5.7;2.1;;;;;;;1.65;76.49121;930.8431;;;;
2020/02/27 07:16:05;;;;;;;2.3;1.1;;;;;;;1.74;75.9834;930.8232;;;;
2020/02/27 07:18:31;;;;;;;4.6;1.3;;;;;;;1.73;75.44336;930.8317;;;;
2020/02/27 07:20:56;;;;;;;3.5;1.1;;;;;;;1.76;75.1123;930.8684;;;;
2020/02/27 07:23:21;;;;;;;3.8;1.4;;;;;;;1.75;74.98926;930.8244;;;;
2020/02/27 07:25:46;;;;;;;1.7;0.8;;;;;;;1.81;74.22754;930.8578;;;;
2020/02/27 07:28:11;;;;;;;2;0.8;;;;;;;1.78;74.91602;930.8715;;;;
2020/02/27 07:30:36;;;;;;;2.6;1.1;;;;;;;1.82;73.78125;930.7961;;;;
2020/02/27 07:33:01;;;;;;;2.9;0.8;;;;;;;2.58;71.9873;930.769;;;;
2020/02/27 07:35:27;;;;;;;3.1;0.7;;;;;;;2.91;68.2959;930.7875;;;;
2020/02/27 07:37:52;;;;;;;2.8;1.1;;;;;;;3.03;70.04297;930.7822;;;;
2020/02/27 07:40:17;;;;;;;2.7;1.1;;;;;;;3.96;66.58691;930.7531;;;;
2020/02/27 07:42:43;;;;;;;2.7;1.2;;;;;;;4.45;64.83984;930.7531;;;;
2020/02/27 07:45:08;;;;;;;3.2;1.9;;;;;;;5;62.64746;930.7231;;;;
2020/02/27 07:47:33;;;;;;;5.2;3.4;;;;;;;5.87;60.93262;930.7251;;;;
2020/02/27 07:49:59;;;;;;;4.9;3.4;;;;;;;7.23;55.98438;930.7012;;;;
2020/02/27 07:52:24;;;;;;;4.5;2.8;;;;;;;7.92;51.89746;930.6442;;;;
2020/02/27 07:54:50;;;;;;;3.6;2.3;;;;;;;6.45;55.63281;930.6914;;;;
2020/02/27 07:57:16;;;;;;;4;1.9;;;;;;;6.45;56.18652;930.625;;;;
2020/02/27 07:59:41;;;;;;;2.6;1.7;;;;;;;7.67;53.30762;930.5605;;;;
2020/02/27 08:02:06;;;;;;;3;1.4;;;;;;;7.57;51.68457;930.5508;;;;
2020/02/27 08:04:32;;;;;;;2.9;1.1;;;;;;;6.99;53.4043;930.5248;;;;
2020/02/27 08:06:57;;;;;;;2.2;1.3;;;;;;;6.23;54.63086;930.4655;;;;
2020/02/27 08:09:22;;;;;;;2.7;1.4;;;;;;;5.8;56.70996;930.4205;;;;
2020/02/27 08:11:47;;;;;;;3;1.6;;;;;;;5.91;58.50879;930.3515;;;;
2020/02/27 08:14:12;;;;;;;9.8;6.9;;;;;;;5.57;59.03906;930.3497;;;;
2020/02/27 08:16:38;;;;;;;6.1;2.7;;;;;;;5.12;59.80078;930.3365;;;;
2020/02/27 08:19:03;;;;;;;4.5;1.4;;;;;;;5.78;58.05273;930.1477;;;;
2020/02/27 08:21:28;;;;;;;2.3;1.2;;;;;;;7.2;54.22363;930.0743;;;;
2020/02/27 08:23:53;;;;;;;2.1;1.1;;;;;;;8.45;49.4043;930.0449;;;;
2020/02/27 08:26:19;;;;;;;3.4;1.6;;;;;;;10.29;46.0791;929.9777;;;;
2020/02/27 08:28:44;;;;;;;2.9;1.3;;;;;;;12.58;40.42578;929.9634;;;;
2020/02/27 08:31:09;;;;;;;4.3;1.3;;;;;;;13.68;37.56055;929.8576;;;;
2020/02/27 08:33:35;;;;;;;3;1.1;;;;;;;13.89;35.92188;929.7791;;;;
2020/02/27 08:36:00;;;;;;;2.9;1.1;;;;;;;14.38;35.25977;929.6757;;;;
2020/02/27 08:38:27;;;;;;;2.5;1;;;;;;;14.26;34.16797;929.5032;;;;
2020/02/27 08:41:00;;;;;;;3.1;1;;;;;;;13.9;34.99023;929.4573;;;;
2020/02/27 08:43:16;;;;;;;2.6;1.1;;;;;;;14.49;33.4248;929.3552;;;;
2020/02/27 08:45:41;;;;;;;2.1;1;;;;;;;14.86;32.46191;929.2608;;;;
2020/02/27 08:48:06;;;;;;;2.2;0.8;;;;;;;15.57;33.51953;929.2478;;;;
2020/02/27 08:50:31;;;;;;;2.2;0.7;;;;;;;14.64;32.38672;929.2172;;;;
2020/02/27 08:52:56;;;;;;;1.7;0.8;;;;;;;14.73;32.5791;929.1024;;;;
2020/02/27 08:55:21;;;;;;;1.8;0.9;;;;;;;14.42;33.24707;929.0424;;;;
2020/02/27 08:57:46;;;;;;;1.6;0.8;;;;;;;13.46;34.23145;928.9874;;;;
2020/02/27 09:00:11;;;;;;;2.5;0.7;;;;;;;12.24;35.33887;928.9645;;;;
2020/02/27 09:02:38;;;;;;;1.6;0.7;;;;;;;11.89;36.70801;928.9265;;;;
2020/02/27 09:05:03;;;;;;;1.8;0.5;;;;;;;12.47;36.43652;928.7918;;;;
2020/02/27 09:07:29;;;;;;;1.8;0.5;;;;;;;11.51;38.50684;928.6624;;;;
2020/02/27 09:09:54;;;;;;;1.1;0.4;;;;;;;10.86;38.96289;928.5882;;;;
2020/02/27 09:12:21;;;;;;;1;0.5;;;;;;;10.24;41.16699;928.5563;;;;
2020/02/27 09:14:46;;;;;;;1;0.6;;;;;;;10.14;40.89453;928.4902;;;;
2020/02/27 09:17:11;;;;;;;1;0.5;;;;;;;10.64;38.73828;928.3499;;;;
2020/02/27 09:19:36;;;;;;;0.8;0.4;;;;;;;11.13;37.12402;928.2883;;;;
2020/02/27 09:22:01;;;;;;;1.7;0.5;;;;;;;11.18;35.85938;928.123;;;;
2020/02/27 09:24:27;;;;;;;0.8;0.5;;;;;;;10.03;37.23438;927.9967;;;;
2020/02/27 09:26:52;;;;;;;1.1;0.4;;;;;;;9.79;38.55957;927.9711;;;;
2020/02/27 09:29:17;;;;;;;1;0.5;;;;;;;9.85;38.60938;927.9187;;;;
2020/02/27 09:31:42;;;;;;;1.2;0.5;;;;;;;10.79;38.46484;927.863;;;;
2020/02/27 09:34:07;;;;;;;1.9;0.5;;;;;;;10.69;36.7998;927.8344;;;;
2020/02/27 09:36:33;;;;;;;3.5;1;;;;;;;10.35;39.43066;927.7989;;;;
2020/02/27 09:38:58;;;;;;;4.4;1.3;;;;;;;10.25;40.3916;927.8123;;;;
2020/02/27 09:41:23;;;;;;;1.6;0.9;;;;;;;10.16;37.91797;927.7424;;;;
2020/02/27 09:43:49;;;;;;;3.9;3.1;;;;;;;10.17;40.55566;927.5983;;;;
2020/02/27 09:46:14;;;;;;;1.2;0.7;;;;;;;9.34;39.09863;927.6283;;;;
2020/02/27 09:48:39;;;;;;;1.5;0.8;;;;;;;9.11;40.88867;927.658;;;;
2020/02/27 09:51:04;;;;;;;1.2;0.7;;;;;;;9;39.68359;927.6127;;;;
2020/02/27 09:53:30;;;;;;;9.6;1.1;;;;;;;8.86;38.39551;927.5527;;;;
2020/02/27 09:55:56;;;;;;;2.9;0.9;;;;;;;8.9;39.46875;927.5287;;;;
2020/02/27 09:58:21;;;;;;;3.9;0.9;;;;;;;9.18;40.99707;927.4219;;;;
2020/02/27 10:00:46;;;;;;;2.7;1;;;;;;;9.39;37.91895;927.3309;;;;
2020/02/27 10:03:12;;;;;;;3.1;1.2;;;;;;;7.93;38.38184;927.2996;;;;
2020/02/27 10:05:37;;;;;;;1.7;1.1;;;;;;;7.5;41.51758;927.2925;;;;
2020/02/27 10:08:02;;;;;;;2.8;1.1;;;;;;;7.97;43.83301;927.2156;;;;
2020/02/27 10:10:27;;;;;;;2.2;0.9;;;;;;;8.65;42.99219;927.1075;;;;
2020/02/27 10:12:53;;;;;;;2.1;0.7;;;;;;;8.94;41.14453;927.0023;;;;
2020/02/27 10:15:17;;;;;;;7.8;1.4;;;;;;;8.77;40.58203;926.927;;;;
2020/02/27 10:17:43;;;;;;;7.1;1.3;;;;;;;8.95;38.6084;926.8975;;;;
2020/02/27 10:20:09;;;;;;;2.6;0.8;;;;;;;7.71;37.68066;926.8505;;;;
2020/02/27 10:22:34;;;;;;;1.1;0.6;;;;;;;8.28;38.74219;926.7675;;;;
2020/02/27 10:24:59;;;;;;;10.9;1.3;;;;;;;8.86;38.37402;926.6437;;;;
2020/02/27 10:27:28;;;;;;;2.1;0.7;;;;;;;9.31;39.02832;926.6752;;;;
2020/02/27 10:29:54;;;;;;;2.9;0.9;;;;;;;10;38.44043;926.5056;;;;
2020/02/27 10:32:19;;;;;;;2.5;0.9;;;;;;;9.76;35.35352;926.519;;;;
2020/02/27 10:34:44;;;;;;;5.3;0.9;;;;;;;9.83;36.45313;926.4369;;;;
2020/02/27 10:37:09;;;;;;;5;0.8;;;;;;;9.66;34.49121;926.3718;;;;
2020/02/27 10:39:34;;;;;;;6.1;1.1;;;;;;;9.89;37.18848;926.3228;;;;
2020/02/27 10:41:59;;;;;;;1.6;0.4;;;;;;;10.48;35.17285;926.3157;;;;
2020/02/27 10:44:24;;;;;;;4.8;0.9;;;;;;;10.84;34.89355;926.1884;;;;
2020/02/27 10:46:49;;;;;;;10.1;1.2;;;;;;;10.34;34.94531;926.1226;;;;
2020/02/27 10:49:14;;;;;;;1.1;0.6;;;;;;;10.06;34.71582;926.0895;;;;
2020/02/27 10:51:39;;;;;;;4.8;1;;;;;;;9.88;37.0498;926.0303;;;;
2020/02/27 10:54:04;;;;;;;2.7;0.9;;;;;;;9.4;35.46094;925.9255;;;;
2020/02/27 10:56:30;;;;;;;4.3;1;;;;;;;8.72;36.10938;925.7805;;;;
2020/02/27 10:58:55;;;;;;;5.1;0.9;;;;;;;8.66;37.43555;925.6316;;;;
2020/02/27 11:01:21;;;;;;;4.3;1;;;;;;;8.9;34.89648;925.6292;;;;
2020/02/27 11:03:46;;;;;;;10.1;1.4;;;;;;;9.21;37.02734;925.5905;;;;
2020/02/27 11:06:12;;;;;;;8.6;1.3;;;;;;;9.37;32.91992;925.5969;;;;
2020/02/27 11:08:37;;;;;;;11.7;1.7;;;;;;;9.86;37.49414;925.5327;;;;
2020/02/27 11:11:03;;;;;;;8.7;1.4;;;;;;;10.64;34.64941;925.3027;;;;
2020/02/27 11:13:28;;;;;;;1.3;0.6;;;;;;;10.27;29.04004;925.2195;;;;
2020/02/27 11:15:53;;;;;;;3.4;0.7;;;;;;;10.37;30.03906;925.1071;;;;
2020/02/27 11:18:18;;;;;;;4.9;0.8;;;;;;;10.32;33.28809;925.0599;;;;
2020/02/27 11:20:43;;;;;;;3.1;0.7;;;;;;;10.35;31.38477;924.9641;;;;
2020/02/27 11:24:03;;;;;;;1.9;0.6;;;;;;;10.41;34.15137;924.9451;;;;
2020/02/27 11:25:35;;;;;;;2;0.8;;;;;;;10.58;33.44531;924.777;;;;
2020/02/27 11:27:59;;;;;;;1;0.6;;;;;;;10.53;30.99805;924.6774;;;;
2020/02/27 11:30:24;;;;;;;1.5;0.5;;;;;;;10.31;32.2832;924.5723;;;;
2020/02/27 11:32:50;;;;;;;2.2;0.7;;;;;;;10.13;33.06836;924.3542;;;;
2020/02/27 11:35:15;;;;;;;2.1;0.8;;;;;;;9.72;35.80664;924.4328;;;;
2020/02/27 11:37:40;;;;;;;1.6;0.5;;;;;;;9.11;32.70508;924.2969;;;;
2020/02/27 11:40:05;;;;;;;2.6;1.3;;;;;;;7.93;38.01855;924.135;;;;
2020/02/27 11:42:30;;;;;;;1.8;0.7;;;;;;;7.92;37.5293;924.063;;;;
2020/02/27 11:44:56;;;;;;;1.3;0.7;;;;;;;8.39;36.74121;923.9832;;;;
2020/02/27 11:47:21;;;;;;;3.3;1.2;;;;;;;8.4;37.54785;923.9299;;;;
2020/02/27 11:49:46;;;;;;;10.2;1.5;;;;;;;8.71;37.07422;923.8706;;;;
2020/02/27 11:52:11;;;;;;;7;1.1;;;;;;;8.28;35.44824;923.7527;;;;
2020/02/27 11:54:36;;;;;;;6.8;1.2;;;;;;;8.14;37.50293;923.6984;;;;
2020/02/27 11:57:02;;;;;;;7.4;1.2;;;;;;;8.34;38.55469;923.5552;;;;
2020/02/27 11:59:27;;;;;;;4.1;0.9;;;;;;;8.48;37.6123;923.4141;;;;
2020/02/27 12:01:53;;;;;;;14.2;2.2;;;;;;;8.67;40.77832;923.3702;;;;
2020/02/27 12:04:17;;;;;;;8.8;1.5;;;;;;;8.39;36.82129;923.1719;;;;
2020/02/27 12:06:43;;;;;;;7.2;1.5;;;;;;;8.21;37.88477;923.1497;;;;
2020/02/27 12:09:08;;;;;;;8.4;1.9;;;;;;;7.85;36.53711;923.0284;;;;
2020/02/27 12:11:33;;;;;;;14.6;1.9;;;;;;;7.87;37.23047;922.8761;;;;
2020/02/27 12:13:58;;;;;;;3.8;1.1;;;;;;;7.82;36.6123;922.7901;;;;
2020/02/27 12:16:23;;;;;;;18.1;2.1;;;;;;;7.85;38.9541;922.6838;;;;
2020/02/27 12:18:48;;;;;;;5;1.2;;;;;;;7.71;36.8418;922.5441;;;;
2020/02/27 12:21:13;;;;;;;9.3;1.5;;;;;;;7.65;38.26563;922.3645;;;;
2020/02/27 12:23:38;;;;;;;6.4;1.5;;;;;;;7.81;37.9502;922.2094;;;;
2020/02/27 12:26:03;;;;;;;19;2.2;;;;;;;8.07;40.30078;922.0977;;;;
2020/02/27 12:28:28;;;;;;;6.6;1.3;;;;;;;7.99;37.21777;921.9347;;;;
2020/02/27 12:30:53;;;;;;;4.9;1;;;;;;;7.86;35.52734;921.7519;;;;
2020/02/27 12:33:18;;;;;;;7.7;1.2;;;;;;;7.9;36.22266;921.6129;;;;
2020/02/27 12:35:43;;;;;;;15.6;2.2;;;;;;;7.75;37.60547;921.609;;;;
2020/02/27 12:38:09;;;;;;;13.3;1.9;;;;;;;8.03;36.5625;921.4314;;;;
2020/02/27 12:40:34;;;;;;;4;1.3;;;;;;;7.83;36.48828;921.291;;;;
2020/02/27 12:42:59;;;;;;;8.5;2;;;;;;;8.01;37.78711;921.155;;;;
2020/02/27 12:45:24;;;;;;;14.6;1.9;;;;;;;7.85;38.73633;920.9945;;;;
2020/02/27 12:47:49;;;;;;;7.8;1.4;;;;;;;8.12;38.63672;920.9392;;;;
2020/02/27 12:50:14;;;;;;;3.7;1.2;;;;;;;8.01;39.10352;920.9225;;;;
2020/02/27 12:52:39;;;;;;;6.4;1.3;;;;;;;7.56;38.50781;920.86;;;;
2020/02/27 12:55:05;;;;;;;7.5;1.2;;;;;;;7.39;38.27637;920.7936;;;;
2020/02/27 12:57:30;;;;;;;7.9;1.6;;;;;;;7.32;38.24707;920.7158;;;;
2020/02/27 12:59:55;;;;;;;18.4;2.8;;;;;;;7.17;37.86035;920.5922;;;;
2020/02/27 13:02:20;;;;;;;14.8;2.1;;;;;;;7.29;38.42676;920.4469;;;;
2020/02/27 13:04:45;;;;;;;10.3;1.4;;;;;;;7.38;39.34082;920.3663;;;;
2020/02/27 13:07:10;;;;;;;11.1;1.3;;;;;;;7.62;35.96094;920.2943;;;;
2020/02/27 13:09:35;;;;;;;14.3;1.9;;;;;;;7.81;40.67383;920.2351;;;;
2020/02/27 13:12:00;;;;;;;7.9;1.5;;;;;;;7.97;38.78223;920.2184;;;;
2020/02/27 13:14:25;;;;;;;8;2.7;;;;;;;8.05;40.86816;920.0371;;;;
2020/02/27 13:16:54;;;;;;;18.6;2.4;;;;;;;8.21;37.54395;919.9523;;;;
2020/02/27 13:19:16;;;;;;;7.9;1.7;;;;;;;8.24;42.54297;919.9703;;;;
2020/02/27 13:21:41;;;;;;;10.6;1.7;;;;;;;8.29;37.3916;919.8635;;;;
2020/02/27 13:24:06;;;;;;;12.9;2;;;;;;;8.02;35.47266;919.8575;;;;
2020/02/27 13:26:37;;;;;;;3.8;0.9;;;;;;;7.49;34.98633;919.7639;;;;
2020/02/27 13:29:01;;;;;;;2.9;1.3;;;;;;;7.6;37.83105;919.7136;;;;
2020/02/27 13:31:24;;;;;;;3.6;1.2;;;;;;;7.52;39.05957;919.6827;;;;
2020/02/27 13:33:49;;;;;;;3.2;0.9;;;;;;;7.4;36.52051;919.6163;;;;
2020/02/27 13:36:14;;;;;;;2.3;0.9;;;;;;;7.33;37.61328;919.5869;;;;
2020/02/27 13:38:39;;;;;;;12.1;2.2;;;;;;;7.38;37.0293;919.5555;;;;
2020/02/27 13:41:04;;;;;;;4.2;1.2;;;;;;;7.29;39.77539;919.5159;;;;
2020/02/27 13:43:29;;;;;;;5.3;1.1;;;;;;;7.24;37.61719;919.4562;;;;
2020/02/27 13:45:59;;;;;;;2.3;1.2;;;;;;;7.1;38.7373;919.3678;;;;
2020/02/27 13:48:29;;;;;;;5.6;1;;;;;;;6.96;39.86816;919.3464;;;;
2020/02/27 13:50:56;;;;;;;10.6;1.7;;;;;;;6.89;38.41309;919.3344;;;;
2020/02/27 13:53:21;;;;;;;6.2;2;;;;;;;6.62;39.97363;919.1755;;;;
2020/02/27 13:55:47;;;;;;;3.4;1.1;;;;;;;6.19;43.29102;919.1661;;;;
2020/02/27 13:58:11;;;;;;;3.7;0.9;;;;;;;6.13;44.31152;919.2043;;;;
2020/02/27 14:00:36;;;;;;;2.3;1;;;;;;;6.1;45.54102;919.2045;;;;
2020/02/27 14:03:01;;;;;;;3.6;1;;;;;;;6;45.33789;919.2411;;;;
2020/02/27 14:05:26;;;;;;;6.3;1.2;;;;;;;5.79;45.02246;919.1694;;;;
2020/02/27 14:07:51;;;;;;;1.6;0.6;;;;;;;5.53;47.37598;919.043;;;;
2020/02/27 14:10:17;;;;;;;4.2;1.8;;;;;;;5.6;48.43359;919.0206;;;;
2020/02/27 14:12:42;;;;;;;5.9;1.7;;;;;;;5.68;49.41309;919.0325;;;;
2020/02/27 14:15:08;;;;;;;12;4;;;;;;;5.63;51.45117;919.0966;;;;
2020/02/27 14:17:33;;;;;;;3.3;0.8;;;;;;;5.03;55.93359;919.038;;;;
2020/02/27 14:19:58;;;;;;;3.6;1;;;;;;;4.9;58.13574;919.116;;;;
2020/02/27 14:22:23;;;;;;;2.8;0.8;;;;;;;4.78;58.33398;919.152;;;;
2020/02/27 14:24:48;;;;;;;2.5;0.8;;;;;;;4.53;59.79688;919.0421;;;;
2020/02/27 14:27:18;;;;;;;3.9;1;;;;;;;4.51;61.82031;918.9807;;;;
2020/02/27 14:29:39;;;;;;;2.5;1.3;;;;;;;4.47;62.87305;918.9931;;;;
2020/02/27 14:32:04;;;;;;;2.7;1.1;;;;;;;4.53;63.29785;919.0302;;;;
2020/02/27 14:34:29;;;;;;;1.8;0.8;;;;;;;4.56;62.56055;919.0161;;;;